Main page
METAR-TAF:

METAR-TAF

Airports :

Santorini, Greece

Santorini (Thira) National Airport

latitude: 36-24N, longitude: 025-29E, elevation: 38 m

Current weather observation

The report was made 22 minutes ago, at 04:20 UTC
Wind 15 kt from the North/Northwest
Temperature 23°C
Humidity 61%
Pressure 1013 hPa
Visibility 10 km or more
no clouds below 1500 m and no cumulonimbus

METAR: LGSR 240420Z 33015KT CAVOK 23/15 Q1013

Time: 07:42 (04:42 UTC)

Forecast

The report was made 5 hours and 42 minutes ago, at 23:00 UTC
Forecast valid from 24 at 00 UTC to 24 at 24 UTC
Wind 22 kt from the North
Visibility 10 km or more
Few clouds at a height of 2500 ft
Temporary
from 24 at 13 UTC to 24 at 20 UTC
Wind 22 kt from the North with gusts up to 32 kt

TAF: LGSR 232300Z 2400/2424 35022KT 9999 FEW025 TEMPO 2413/2420 35022G32KT

Weather observations and forecasts of more than 4000 airports (METAR and TAF reports).

The available stations are represented by yellow and red dots on the map.

Hover mouse over dot to see the name of the station.

Then click to see weather observations and forecasts.

To change the map : click on the green buttons with a black cross to zoom in, on the green button with a dash to zoom out, or on the green arrows for adjacent maps.


METAR-TAF: